createdAt,value
2018-08-17T00:00:33.950Z,23.18
2018-08-17T00:01:34.000Z,23.17
2018-08-17T00:02:33.803Z,23.19
2018-08-17T00:03:33.894Z,23.21
2018-08-17T00:04:33.900Z,23.19
2018-08-17T00:05:33.774Z,23.21
2018-08-17T00:06:33.979Z,23.21
2018-08-17T00:07:33.761Z,23.19
2018-08-17T00:08:33.996Z,23.22
2018-08-17T00:09:33.816Z,23.18
2018-08-17T00:10:33.965Z,23.19
2018-08-17T00:11:33.893Z,23.19
2018-08-17T00:12:33.770Z,23.21
2018-08-17T00:13:33.664Z,23.21
2018-08-17T00:14:33.961Z,23.21
2018-08-17T00:15:33.815Z,23.18
2018-08-17T00:16:34.029Z,23.17
2018-08-17T00:17:33.859Z,23.18
2018-08-17T00:18:33.853Z,23.19
2018-08-17T00:19:33.768Z,23.19
2018-08-17T00:20:33.765Z,23.19
2018-08-17T00:21:34.006Z,23.19
2018-08-17T00:22:33.817Z,23.19
2018-08-17T00:23:33.978Z,23.17
2018-08-17T00:24:33.938Z,23.19
2018-08-17T00:25:33.873Z,23.19
2018-08-17T00:26:33.989Z,23.19
2018-08-17T00:27:33.905Z,23.18
2018-08-17T00:28:33.828Z,23.19
2018-08-17T00:29:33.919Z,23.18
2018-08-17T00:30:33.884Z,23.18
2018-08-17T00:31:33.797Z,23.18
2018-08-17T00:32:33.754Z,23.22
2018-08-17T00:33:34.021Z,23.21
2018-08-17T00:34:34.130Z,23.18
2018-08-17T00:35:33.965Z,23.19
2018-08-17T00:36:34.071Z,23.19
2018-08-17T00:37:33.781Z,23.21
2018-08-17T00:38:34.063Z,23.19
2018-08-17T00:39:33.845Z,23.19
2018-08-17T00:40:33.848Z,23.22
2018-08-17T00:41:33.778Z,23.19
2018-08-17T00:42:33.816Z,23.21
2018-08-17T00:43:33.833Z,23.21
2018-08-17T00:44:33.744Z,23.18
2018-08-17T00:45:33.780Z,23.19
2018-08-17T00:46:33.997Z,23.19
2018-08-17T00:47:33.888Z,23.19
2018-08-17T00:48:33.849Z,23.19
2018-08-17T00:49:33.813Z,23.17
2018-08-17T00:50:33.926Z,23.19
2018-08-17T00:51:33.759Z,23.21
2018-08-17T00:52:33.894Z,23.19
2018-08-17T00:53:33.951Z,23.18
2018-08-17T00:54:33.777Z,23.18
2018-08-17T00:55:34.322Z,23.19
2018-08-17T00:56:33.899Z,23.18
2018-08-17T00:57:33.832Z,23.19
2018-08-17T00:58:33.882Z,23.19
2018-08-17T00:59:33.949Z,23.19
2018-08-17T01:00:33.847Z,23.17
2018-08-17T01:01:33.689Z,23.19
2018-08-17T01:02:33.723Z,23.21
2018-08-17T01:03:33.913Z,23.21
2018-08-17T01:04:33.988Z,23.18
2018-08-17T01:05:33.985Z,23.19
2018-08-17T01:06:34.038Z,23.22
2018-08-17T01:07:33.730Z,23.21
2018-08-17T01:08:33.848Z,23.21
2018-08-17T01:09:33.945Z,23.23
2018-08-17T01:10:34.012Z,23.22
2018-08-17T01:11:33.845Z,23.21
2018-08-17T01:12:33.758Z,23.17
2018-08-17T01:13:33.782Z,23.19
2018-08-17T01:14:33.969Z,23.19
2018-08-17T01:15:34.102Z,23.19
2018-08-17T01:16:33.748Z,23.19
2018-08-17T01:17:34.015Z,23.21
2018-08-17T01:18:33.897Z,23.21
2018-08-17T01:19:33.745Z,23.22
2018-08-17T01:20:33.691Z,23.21
2018-08-17T01:21:33.902Z,23.21
2018-08-17T01:22:33.843Z,23.21
2018-08-17T01:23:33.715Z,23.19
2018-08-17T01:24:33.892Z,23.21
2018-08-17T01:25:33.712Z,23.21
2018-08-17T01:26:33.862Z,23.19
2018-08-17T01:27:33.774Z,23.19
2018-08-17T01:28:33.784Z,23.21
2018-08-17T01:29:33.774Z,23.21
2018-08-17T01:30:33.758Z,23.18
2018-08-17T01:31:33.931Z,23.18
2018-08-17T01:32:33.803Z,23.21
2018-08-17T01:33:33.771Z,23.19
2018-08-17T01:34:33.783Z,23.18
2018-08-17T01:35:33.712Z,23.19
2018-08-17T01:36:33.893Z,23.19
2018-08-17T01:37:33.832Z,23.18
2018-08-17T01:38:34.030Z,23.18
2018-08-17T01:39:33.807Z,23.17
2018-08-17T01:40:33.937Z,23.18
2018-08-17T01:41:33.795Z,23.18
2018-08-17T01:42:33.844Z,23.18
2018-08-17T01:43:33.734Z,23.17
2018-08-17T01:44:33.706Z,23.19
2018-08-17T01:45:33.911Z,23.21
2018-08-17T01:46:34.144Z,23.18
2018-08-17T01:47:33.737Z,23.19
2018-08-17T01:48:33.830Z,23.19
2018-08-17T01:49:33.903Z,23.18
2018-08-17T01:50:33.852Z,23.19
2018-08-17T01:51:34.243Z,23.19
2018-08-17T01:52:33.775Z,23.19
2018-08-17T01:53:33.745Z,23.21
2018-08-17T01:54:33.981Z,23.18
2018-08-17T01:55:34.350Z,23.21
2018-08-17T01:56:34.031Z,23.18
2018-08-17T01:57:33.923Z,23.19
2018-08-17T01:58:34.060Z,23.18
2018-08-17T01:59:33.884Z,23.19
2018-08-17T02:00:33.804Z,23.21
2018-08-17T02:01:33.822Z,23.18
2018-08-17T02:02:33.805Z,23.18
2018-08-17T02:03:34.052Z,23.18
2018-08-17T02:04:33.800Z,23.19
2018-08-17T02:05:33.878Z,23.19
2018-08-17T02:06:33.714Z,23.18
2018-08-17T02:07:33.891Z,23.17
2018-08-17T02:08:34.068Z,23.17
2018-08-17T02:09:33.760Z,23.19
2018-08-17T02:10:33.958Z,23.18
2018-08-17T02:11:34.063Z,23.19
2018-08-17T02:12:33.762Z,23.18
2018-08-17T02:13:33.715Z,23.19
2018-08-17T02:14:34.303Z,23.21
2018-08-17T02:15:33.992Z,23.18
2018-08-17T02:16:33.893Z,23.19
2018-08-17T02:17:33.717Z,23.19
2018-08-17T02:18:33.767Z,23.18
2018-08-17T02:19:33.946Z,23.18
2018-08-17T02:20:33.780Z,23.18
2018-08-17T02:21:33.765Z,23.17
2018-08-17T02:22:34.117Z,23.18
2018-08-17T02:23:33.680Z,23.19
2018-08-17T02:24:34.989Z,23.19
2018-08-17T02:25:33.833Z,23.18
2018-08-17T02:26:33.817Z,23.17
2018-08-17T02:27:33.768Z,23.18
2018-08-17T02:28:33.813Z,23.18
2018-08-17T02:29:33.862Z,23.18
2018-08-17T02:30:33.897Z,23.18
2018-08-17T02:31:34.030Z,23.19
2018-08-17T02:32:33.805Z,23.18
2018-08-17T02:33:33.954Z,23.18
2018-08-17T02:34:33.896Z,23.18
2018-08-17T02:35:33.658Z,23.18
2018-08-17T02:36:33.950Z,23.15
2018-08-17T02:37:33.987Z,23.15
2018-08-17T02:38:33.892Z,23.19
2018-08-17T02:39:33.734Z,23.17
2018-08-17T02:40:33.767Z,23.17
2018-08-17T02:41:33.782Z,23.18
2018-08-17T02:42:33.970Z,23.18
2018-08-17T02:43:33.704Z,23.17
2018-08-17T02:44:33.869Z,23.18
2018-08-17T02:45:33.711Z,23.17
2018-08-17T02:46:33.744Z,23.15
2018-08-17T02:47:33.778Z,23.14
2018-08-17T02:48:33.717Z,23.15
2018-08-17T02:49:33.801Z,23.17
2018-08-17T02:50:33.726Z,23.15
2018-08-17T02:51:33.816Z,23.15
2018-08-17T02:52:33.759Z,23.15
2018-08-17T02:53:33.833Z,23.14
2018-08-17T02:54:33.755Z,23.15
2018-08-17T02:55:33.891Z,23.17
2018-08-17T02:56:33.897Z,23.15
2018-08-17T02:57:33.751Z,23.14
2018-08-17T02:58:33.800Z,23.15
2018-08-17T02:59:34.107Z,23.14
2018-08-17T03:00:33.832Z,23.15
2018-08-17T03:01:34.020Z,23.14
2018-08-17T03:02:34.005Z,23.18
2018-08-17T03:03:33.803Z,23.15
2018-08-17T03:04:33.969Z,23.12
2018-08-17T03:05:33.880Z,23.14
2018-08-17T03:06:33.990Z,23.12
2018-08-17T03:07:33.807Z,23.11
2018-08-17T03:08:34.246Z,23.12
2018-08-17T03:09:33.944Z,23.14
2018-08-17T03:10:33.864Z,23.17
2018-08-17T03:11:33.852Z,23.14
2018-08-17T03:12:33.932Z,23.12
2018-08-17T03:13:33.776Z,23.12
2018-08-17T03:14:34.060Z,23.15
2018-08-17T03:15:33.791Z,23.12
2018-08-17T03:16:33.854Z,23.12
2018-08-17T03:17:34.221Z,23.12
2018-08-17T03:18:34.044Z,23.11
2018-08-17T03:19:33.804Z,23.12
2018-08-17T03:20:34.023Z,23.12
2018-08-17T03:21:33.792Z,23.12
2018-08-17T03:22:34.221Z,23.12
2018-08-17T03:23:33.657Z,23.12
2018-08-17T03:24:33.947Z,23.12
2018-08-17T03:25:33.807Z,23.14
2018-08-17T03:26:33.815Z,23.11
2018-08-17T03:27:33.814Z,23.11
2018-08-17T03:28:33.915Z,23.11
2018-08-17T03:29:34.015Z,23.12
2018-08-17T03:30:33.990Z,23.12
2018-08-17T03:31:33.815Z,23.12
2018-08-17T03:32:33.917Z,23.11
2018-08-17T03:33:34.164Z,23.11
2018-08-17T03:34:33.847Z,23.14
2018-08-17T03:35:34.039Z,23.09
2018-08-17T03:36:33.861Z,23.14
2018-08-17T03:37:33.761Z,23.12
2018-08-17T03:38:33.911Z,23.12
2018-08-17T03:39:33.851Z,23.12
2018-08-17T03:40:33.921Z,23.11
2018-08-17T03:41:33.736Z,23.15
2018-08-17T03:42:33.812Z,23.11
2018-08-17T03:43:33.767Z,23.14
2018-08-17T03:44:33.805Z,23.12
2018-08-17T03:45:33.803Z,23.12
2018-08-17T03:46:33.748Z,23.11
2018-08-17T03:47:33.912Z,23.14
2018-08-17T03:48:33.767Z,23.14
2018-08-17T03:49:33.957Z,23.14
2018-08-17T03:50:33.705Z,23.12
2018-08-17T03:51:33.701Z,23.12
2018-08-17T03:52:33.665Z,23.12
2018-08-17T03:53:33.878Z,23.12
2018-08-17T03:54:33.816Z,23.12
2018-08-17T03:55:33.866Z,23.12
2018-08-17T03:56:33.757Z,23.09
2018-08-17T03:57:33.679Z,23.09
2018-08-17T03:58:33.877Z,23.12
2018-08-17T03:59:33.725Z,23.11
2018-08-17T04:00:33.964Z,23.15
2018-08-17T04:01:33.731Z,23.12
2018-08-17T04:02:33.748Z,23.09
2018-08-17T04:03:33.717Z,23.11
2018-08-17T04:04:33.851Z,23.11
2018-08-17T04:05:33.914Z,23.09
2018-08-17T04:06:33.904Z,23.12
2018-08-17T04:07:33.919Z,23.09
2018-08-17T04:08:33.701Z,23.08
2018-08-17T04:09:33.675Z,23.09
2018-08-17T04:10:33.883Z,23.08
2018-08-17T04:11:33.991Z,23.09
2018-08-17T04:12:33.883Z,23.11
2018-08-17T04:13:33.946Z,23.09
2018-08-17T04:14:33.816Z,23.09
2018-08-17T04:15:34.662Z,23.11
2018-08-17T04:16:33.859Z,23.09
2018-08-17T04:17:33.740Z,23.09
2018-08-17T04:18:33.734Z,23.09
2018-08-17T04:19:33.860Z,23.08
2018-08-17T04:20:33.753Z,23.09
2018-08-17T04:21:34.051Z,23.09
2018-08-17T04:22:33.803Z,23.08
2018-08-17T04:23:33.724Z,23.12
2018-08-17T04:24:34.167Z,23.08
2018-08-17T04:25:34.058Z,23.07
2018-08-17T04:26:33.719Z,23.07
2018-08-17T04:27:33.762Z,23.09
2018-08-17T04:28:34.021Z,23.11
2018-08-17T04:29:33.901Z,23.11
2018-08-17T04:30:33.915Z,23.08
2018-08-17T04:31:33.833Z,23.08
2018-08-17T04:32:33.835Z,23.09
2018-08-17T04:33:34.019Z,23.11
2018-08-17T04:34:33.960Z,23.11
2018-08-17T04:35:34.538Z,23.09
2018-08-17T04:36:34.094Z,23.07
2018-08-17T04:37:33.807Z,23.08
2018-08-17T04:38:33.821Z,23.09
2018-08-17T04:39:33.873Z,23.09
2018-08-17T04:40:33.742Z,23.09
2018-08-17T04:41:33.704Z,23.09
2018-08-17T04:42:33.952Z,23.12
2018-08-17T04:43:34.163Z,23.09
2018-08-17T04:44:33.907Z,23.11
2018-08-17T04:45:33.834Z,23.11
2018-08-17T04:46:33.600Z,23.08
2018-08-17T04:47:33.940Z,23.09
2018-08-17T04:48:34.111Z,23.09
2018-08-17T04:49:33.828Z,23.08
2018-08-17T04:50:33.949Z,23.11
2018-08-17T04:51:33.857Z,23.09
2018-08-17T04:52:33.785Z,23.08
2018-08-17T04:53:33.972Z,23.08
2018-08-17T04:54:33.878Z,23.07
2018-08-17T04:55:33.720Z,23.08
2018-08-17T04:56:34.115Z,23.09
2018-08-17T04:57:33.962Z,23.08
2018-08-17T04:58:33.915Z,23.09
2018-08-17T04:59:33.901Z,23.11
2018-08-17T05:00:33.828Z,23.08
2018-08-17T05:01:33.900Z,23.11
2018-08-17T05:02:33.957Z,23.08
2018-08-17T05:03:34.100Z,23.07
2018-08-17T05:04:33.694Z,23.09
2018-08-17T05:05:33.961Z,23.08
2018-08-17T05:06:33.766Z,23.08
2018-08-17T05:07:33.829Z,23.08
2018-08-17T05:08:33.790Z,23.08
2018-08-17T05:09:33.730Z,23.09
2018-08-17T05:10:33.813Z,23.08
2018-08-17T05:11:33.875Z,23.08
2018-08-17T05:12:33.745Z,23.08
2018-08-17T05:13:33.620Z,23.08
2018-08-17T05:14:33.802Z,23.08
2018-08-17T05:15:33.896Z,23.11
2018-08-17T05:16:33.645Z,23.09
2018-08-17T05:17:33.887Z,23.11
2018-08-17T05:18:33.715Z,23.09
2018-08-17T05:19:33.877Z,23.07
2018-08-17T05:20:33.627Z,23.09
2018-08-17T05:21:34.696Z,23.08
2018-08-17T05:22:33.734Z,23.08
2018-08-17T05:23:33.702Z,23.09
2018-08-17T05:24:33.727Z,23.05
2018-08-17T05:25:33.644Z,23.09
2018-08-17T05:26:34.093Z,23.08
2018-08-17T05:27:33.901Z,23.05
2018-08-17T05:28:33.748Z,23.08
2018-08-17T05:29:33.786Z,23.05
2018-08-17T05:30:33.807Z,23.07
2018-08-17T05:31:33.886Z,23.08
2018-08-17T05:32:33.761Z,23.08
2018-08-17T05:33:33.831Z,23.09
2018-08-17T05:34:33.801Z,23.05
2018-08-17T05:35:33.778Z,23.07
2018-08-17T05:36:33.820Z,23.08
2018-08-17T05:37:33.819Z,23.08
2018-08-17T05:38:33.808Z,23.08
2018-08-17T05:39:33.875Z,23.08
2018-08-17T05:40:33.754Z,23.08
2018-08-17T05:41:33.764Z,23.08
2018-08-17T05:42:33.863Z,23.09
2018-08-17T05:43:33.792Z,23.09
2018-08-17T05:44:33.913Z,23.08
2018-08-17T05:45:33.866Z,23.07
2018-08-17T05:46:33.921Z,23.08
2018-08-17T05:47:33.719Z,23.09
2018-08-17T05:48:33.929Z,23.09
2018-08-17T05:49:33.798Z,23.07
2018-08-17T05:50:33.886Z,23.08
2018-08-17T05:51:33.808Z,23.09
2018-08-17T05:52:33.739Z,23.09
2018-08-17T05:53:33.841Z,23.08
2018-08-17T05:54:33.768Z,23.08
2018-08-17T05:55:33.769Z,23.08
2018-08-17T05:56:34.326Z,23.07
2018-08-17T05:57:33.794Z,23.08
2018-08-17T05:58:33.779Z,23.08
2018-08-17T05:59:33.685Z,23.08
2018-08-17T06:00:33.604Z,23.07
2018-08-17T06:01:33.902Z,23.08
2018-08-17T06:02:33.830Z,23.07
2018-08-17T06:03:33.977Z,23.05
2018-08-17T06:04:33.880Z,23.02
2018-08-17T06:05:33.842Z,23.01
2018-08-17T06:06:33.848Z,23.02
2018-08-17T06:07:33.822Z,22.97
2018-08-17T06:08:33.910Z,22.99
2018-08-17T06:09:33.995Z,22.98
2018-08-17T06:10:33.825Z,22.95
2018-08-17T06:11:34.229Z,22.97
2018-08-17T06:12:33.729Z,22.97
2018-08-17T06:13:33.752Z,22.92
2018-08-17T06:14:33.762Z,22.92
2018-08-17T06:15:33.783Z,22.92
2018-08-17T06:16:33.859Z,22.9
2018-08-17T06:17:33.966Z,22.9
2018-08-17T06:18:33.856Z,22.88
2018-08-17T06:19:33.792Z,22.9
2018-08-17T06:20:34.820Z,22.9
2018-08-17T06:21:33.851Z,22.91
2018-08-17T06:22:33.887Z,22.87
2018-08-17T06:23:33.739Z,22.9
2018-08-17T06:24:33.685Z,22.88
2018-08-17T06:25:33.793Z,22.87
2018-08-17T06:26:33.717Z,22.87
2018-08-17T06:27:33.870Z,22.87
2018-08-17T06:28:33.731Z,22.87
2018-08-17T06:29:33.557Z,22.85
2018-08-17T06:30:33.745Z,22.9
2018-08-17T06:31:34.080Z,22.91
2018-08-17T06:32:33.823Z,22.94
2018-08-17T06:33:33.672Z,22.95
2018-08-17T06:34:33.801Z,22.97
2018-08-17T06:35:33.736Z,22.98
2018-08-17T06:36:33.828Z,22.97
2018-08-17T06:37:33.750Z,22.98
2018-08-17T06:38:33.639Z,22.99
2018-08-17T06:39:33.730Z,22.98
2018-08-17T06:40:33.747Z,22.99
2018-08-17T06:41:33.719Z,22.98
2018-08-17T06:42:34.383Z,23.01
2018-08-17T06:43:33.698Z,23.02
2018-08-17T06:44:33.806Z,23.01
2018-08-17T06:45:33.813Z,23.01
2018-08-17T06:46:33.687Z,23.01
2018-08-17T06:47:33.834Z,23.01
2018-08-17T06:48:33.646Z,23.02
2018-08-17T06:49:33.635Z,23.01
2018-08-17T06:50:34.227Z,23.02
2018-08-17T06:51:33.791Z,23.03
2018-08-17T06:52:33.689Z,23.03
2018-08-17T06:53:33.805Z,23.03
2018-08-17T06:54:33.762Z,22.99
2018-08-17T06:55:33.781Z,22.95
2018-08-17T06:56:33.948Z,22.99
2018-08-17T06:57:34.243Z,22.97
2018-08-17T06:58:33.769Z,23.02
2018-08-17T06:59:33.605Z,22.99
2018-08-17T07:00:33.766Z,23.01
2018-08-17T07:01:33.742Z,23.03
2018-08-17T07:02:34.353Z,23.02
2018-08-17T07:03:33.862Z,23.03
2018-08-17T07:04:34.039Z,23.01
2018-08-17T07:05:33.831Z,23.01
2018-08-17T07:06:33.896Z,23.02
2018-08-17T07:07:34.234Z,23.05
2018-08-17T07:08:34.585Z,23.03
2018-08-17T07:09:34.471Z,23.02
2018-08-17T07:10:34.141Z,23.01
2018-08-17T07:11:33.717Z,23.03
2018-08-17T07:12:33.742Z,23.03
2018-08-17T07:13:34.280Z,23.02
2018-08-17T07:14:33.884Z,23.03
2018-08-17T07:15:33.925Z,23.01
2018-08-17T07:16:34.067Z,22.99
2018-08-17T07:17:34.346Z,23.01
2018-08-17T07:18:34.134Z,23.03
2018-08-17T07:19:33.995Z,23.02
2018-08-17T07:20:33.896Z,23.02
2018-08-17T07:21:34.212Z,23.02
2018-08-17T07:22:34.276Z,23.02
2018-08-17T07:23:33.817Z,23.03
2018-08-17T07:24:33.901Z,23.03
2018-08-17T07:25:33.938Z,23.03
2018-08-17T07:26:33.829Z,23.03
2018-08-17T07:27:33.780Z,23.05
2018-08-17T07:28:33.738Z,23.03
2018-08-17T07:29:33.751Z,23.02
2018-08-17T07:30:33.858Z,23.02
2018-08-17T07:31:33.892Z,23.03
2018-08-17T07:32:34.360Z,23.03
2018-08-17T07:33:33.767Z,23.07
2018-08-17T07:34:33.708Z,23.03
2018-08-17T07:35:34.233Z,23.05
2018-08-17T07:36:33.872Z,23.03
2018-08-17T07:37:33.771Z,23.05
2018-08-17T07:38:33.836Z,23.01
2018-08-17T07:39:33.662Z,23.02
2018-08-17T07:40:33.816Z,22.99
2018-08-17T07:41:34.060Z,23.02
2018-08-17T07:42:33.642Z,23.02
2018-08-17T07:43:33.647Z,23.03
2018-08-17T07:44:33.721Z,23.02
2018-08-17T07:45:33.696Z,23.03
2018-08-17T07:46:33.778Z,23.01
2018-08-17T07:47:33.723Z,23.02
2018-08-17T07:48:33.760Z,22.99
2018-08-17T07:49:33.724Z,22.99
2018-08-17T07:50:33.897Z,22.97
2018-08-17T07:51:33.749Z,22.97
2018-08-17T07:52:33.631Z,22.99
2018-08-17T07:53:33.614Z,22.98
2018-08-17T07:54:33.708Z,23.01
2018-08-17T07:55:33.935Z,22.99
2018-08-17T07:56:33.805Z,23.01
2018-08-17T07:57:33.827Z,23.01
2018-08-17T07:58:33.789Z,23.01
2018-08-17T07:59:33.862Z,23.03
2018-08-17T08:00:33.803Z,23.02
2018-08-17T08:01:33.887Z,23.03
2018-08-17T08:02:33.835Z,23.01
2018-08-17T08:03:33.763Z,22.98
2018-08-17T08:04:33.862Z,22.97
2018-08-17T08:05:33.843Z,22.97
2018-08-17T08:06:33.913Z,22.98
2018-08-17T08:07:33.783Z,22.98
2018-08-17T08:08:33.917Z,22.99
2018-08-17T08:09:33.772Z,22.99
2018-08-17T08:10:33.615Z,22.99
2018-08-17T08:11:33.805Z,23.03
2018-08-17T08:12:33.877Z,23.03
2018-08-17T08:13:34.162Z,23.03
2018-08-17T08:14:33.777Z,23.01
2018-08-17T08:15:33.803Z,22.99
2018-08-17T08:16:33.765Z,22.99
2018-08-17T08:17:33.655Z,23.02
2018-08-17T08:18:33.884Z,23.02
2018-08-17T08:19:33.850Z,23.03
2018-08-17T08:20:33.699Z,23.02
2018-08-17T08:21:33.796Z,23.03
2018-08-17T08:22:33.920Z,23.02
2018-08-17T08:23:33.716Z,23.03
2018-08-17T08:24:33.849Z,23.03
2018-08-17T08:25:33.792Z,23.03
2018-08-17T08:26:33.552Z,23.02
2018-08-17T08:27:33.837Z,23.03
2018-08-17T08:28:33.706Z,23.02
2018-08-17T08:29:33.857Z,23.01
2018-08-17T08:30:33.776Z,23.02
2018-08-17T08:31:33.758Z,23.02
2018-08-17T08:32:34.440Z,23.02
2018-08-17T08:33:33.848Z,23.02
2018-08-17T08:34:33.728Z,23.02
2018-08-17T08:35:33.787Z,23.02
2018-08-17T08:36:33.804Z,23.03
2018-08-17T08:37:33.641Z,23.03
2018-08-17T08:38:33.750Z,23.02
2018-08-17T08:39:33.707Z,23.02
2018-08-17T08:40:33.745Z,23.03
2018-08-17T08:41:33.974Z,23.03
2018-08-17T08:42:33.812Z,23.02
2018-08-17T08:43:33.832Z,23.03
2018-08-17T08:44:33.811Z,23.05
2018-08-17T08:45:34.415Z,23.02
2018-08-17T08:46:34.326Z,23.01
2018-08-17T08:47:33.710Z,23.02
2018-08-17T08:48:33.795Z,23.03
2018-08-17T08:49:33.694Z,23.03
2018-08-17T08:50:33.740Z,23.02
2018-08-17T08:51:33.878Z,23.01
2018-08-17T08:52:33.868Z,23.03
2018-08-17T08:53:33.834Z,23.02
2018-08-17T08:54:33.773Z,23.02
2018-08-17T08:55:33.726Z,23.02
2018-08-17T08:56:33.803Z,23.01
2018-08-17T08:57:33.683Z,23.03
2018-08-17T08:58:33.818Z,23.01
2018-08-17T08:59:33.792Z,23.02
2018-08-17T09:00:33.687Z,23.02
2018-08-17T09:01:33.949Z,23.02
2018-08-17T09:02:33.675Z,23.02
2018-08-17T09:03:33.868Z,23.02
2018-08-17T09:04:33.760Z,23.02
2018-08-17T09:05:33.711Z,23.02
2018-08-17T09:06:33.647Z,23.01
2018-08-17T09:07:33.783Z,23.02
2018-08-17T09:08:33.751Z,23.03
2018-08-17T09:09:33.904Z,23.02
2018-08-17T09:10:33.830Z,23.02
2018-08-17T09:11:33.616Z,23.03
2018-08-17T09:12:33.758Z,23.03
2018-08-17T09:13:34.134Z,23.03
2018-08-17T09:14:33.699Z,23.02
2018-08-17T09:15:33.760Z,23.03
2018-08-17T09:16:33.747Z,23.03
2018-08-17T09:17:33.711Z,23.02
2018-08-17T09:18:33.921Z,22.98
2018-08-17T09:19:33.888Z,23.03
2018-08-17T09:20:34.003Z,23.02
2018-08-17T09:21:33.879Z,23.02
2018-08-17T09:22:33.701Z,23.01
2018-08-17T09:23:33.884Z,23.03
2018-08-17T09:24:33.790Z,23.02
2018-08-17T09:25:33.997Z,23.02
2018-08-17T09:26:33.899Z,23.02
2018-08-17T09:27:33.759Z,23.03
2018-08-17T09:28:33.773Z,23.01
2018-08-17T09:29:33.602Z,23.05
2018-08-17T09:30:33.643Z,23.05
2018-08-17T09:31:33.843Z,23.05
2018-08-17T09:32:33.826Z,23.02
2018-08-17T09:33:33.769Z,23.02
2018-08-17T09:34:33.769Z,23.03
2018-08-17T09:35:33.742Z,23.05
2018-08-17T09:36:33.858Z,23.02
2018-08-17T09:37:33.727Z,23.05
2018-08-17T09:38:33.921Z,23.03
2018-08-17T09:39:33.773Z,23.03
2018-08-17T09:40:33.754Z,23.01
2018-08-17T09:41:34.107Z,23.01
2018-08-17T09:42:33.586Z,23.02
2018-08-17T09:43:33.880Z,23.02
2018-08-17T09:44:33.800Z,23.01
2018-08-17T09:45:33.830Z,23.05
2018-08-17T09:46:33.769Z,23.01
2018-08-17T09:47:33.735Z,23.03
2018-08-17T09:48:33.682Z,23.05
2018-08-17T09:49:34.022Z,23.03
2018-08-17T09:50:33.828Z,23.02
2018-08-17T09:51:33.601Z,23.03
2018-08-17T09:52:33.830Z,23.03
2018-08-17T09:53:33.752Z,23.02
2018-08-17T09:54:33.583Z,23.07
2018-08-17T09:55:33.780Z,23.02
2018-08-17T09:56:33.912Z,23.03
2018-08-17T09:57:34.295Z,23.03
2018-08-17T09:58:33.825Z,23.05
2018-08-17T09:59:33.821Z,23.02
2018-08-17T10:00:33.792Z,23.02
2018-08-17T10:01:33.801Z,23.02
2018-08-17T10:02:33.614Z,23.05
2018-08-17T10:03:33.793Z,23.02
2018-08-17T10:04:33.824Z,23.02
2018-08-17T10:05:33.726Z,23.01
2018-08-17T10:06:33.884Z,22.99
2018-08-17T10:07:33.890Z,22.99
2018-08-17T10:08:33.838Z,22.99
2018-08-17T10:09:34.767Z,23.03
2018-08-17T10:10:33.909Z,23.03
2018-08-17T10:11:33.621Z,23.05
2018-08-17T10:12:33.736Z,23.02
2018-08-17T10:13:33.698Z,23.05
2018-08-17T10:14:33.769Z,23.05
2018-08-17T10:15:33.666Z,23.02
2018-08-17T10:16:33.775Z,23.03
2018-08-17T10:17:33.915Z,23.03
2018-08-17T10:18:33.856Z,23.05
2018-08-17T10:19:33.752Z,23.05
2018-08-17T10:20:33.553Z,23.07
2018-08-17T10:21:37.117Z,23.02
2018-08-17T10:22:33.856Z,23.05
2018-08-17T10:23:33.803Z,23.05
2018-08-17T10:24:33.806Z,23.05
2018-08-17T10:25:33.867Z,23.03
2018-08-17T10:26:33.548Z,23.03
2018-08-17T10:27:33.707Z,23.05
2018-08-17T10:28:33.713Z,23.05
2018-08-17T10:29:33.535Z,23.03
2018-08-17T10:30:33.585Z,23.02
2018-08-17T10:31:33.754Z,23.03
2018-08-17T10:32:33.865Z,23.03
2018-08-17T10:33:33.751Z,23.03
2018-08-17T10:34:33.665Z,23.02
2018-08-17T10:35:33.631Z,23.03
2018-08-17T10:36:33.935Z,23.02
2018-08-17T10:37:33.664Z,23.07
2018-08-17T10:38:33.881Z,23.07
2018-08-17T10:39:33.750Z,23.03
2018-08-17T10:40:34.016Z,23.03
2018-08-17T10:41:33.827Z,23.03
2018-08-17T10:42:33.940Z,23.07
2018-08-17T10:43:34.254Z,23.05
2018-08-17T10:44:33.868Z,23.08
2018-08-17T10:45:34.129Z,23.11
2018-08-17T10:46:34.346Z,23.09
2018-08-17T10:47:33.665Z,23.11
2018-08-17T10:48:34.105Z,23.08
2018-08-17T10:49:33.931Z,23.05
2018-08-17T10:50:33.656Z,23.07
2018-08-17T10:51:34.040Z,23.05
2018-08-17T10:52:33.941Z,23.03
2018-08-17T10:53:33.701Z,23.05
2018-08-17T10:54:33.788Z,23.01
2018-08-17T10:55:34.556Z,23.05
2018-08-17T10:56:33.577Z,23.01
2018-08-17T10:57:35.209Z,23.02
2018-08-17T10:58:34.219Z,23.03
2018-08-17T10:59:33.827Z,23.03
2018-08-17T11:00:34.353Z,23.05
2018-08-17T11:01:33.762Z,23.03
2018-08-17T11:02:33.869Z,23.02
2018-08-17T11:03:33.619Z,23.02
2018-08-17T11:04:33.878Z,23.05
2018-08-17T11:05:33.714Z,23.02
2018-08-17T11:06:33.811Z,23.03
2018-08-17T11:07:34.108Z,23.01
2018-08-17T11:08:33.744Z,23.02
2018-08-17T11:09:33.984Z,23.02
2018-08-17T11:10:33.809Z,23.05
2018-08-17T11:11:33.793Z,23.02
2018-08-17T11:12:33.793Z,23.02
2018-08-17T11:13:34.407Z,23.03
2018-08-17T11:14:33.547Z,23.03
2018-08-17T11:15:33.590Z,23.02
2018-08-17T11:16:33.750Z,23.02
2018-08-17T11:17:34.117Z,23.02
2018-08-17T11:18:33.822Z,23.05
2018-08-17T11:19:33.813Z,23.02
2018-08-17T11:20:33.811Z,23.02
2018-08-17T11:21:33.895Z,22.99
2018-08-17T11:22:33.883Z,23.02
2018-08-17T11:23:33.763Z,23.02
2018-08-17T11:24:33.768Z,23.01
2018-08-17T11:25:33.769Z,23.03
2018-08-17T11:26:34.178Z,23.02
2018-08-17T11:27:33.855Z,23.02
2018-08-17T11:28:34.404Z,22.99
2018-08-17T11:29:33.622Z,23.02
2018-08-17T11:30:34.106Z,23.01
2018-08-17T11:31:33.813Z,23.02
2018-08-17T11:32:33.675Z,23.03
2018-08-17T11:33:33.672Z,23.05
2018-08-17T11:34:33.554Z,23.03
2018-08-17T11:35:33.901Z,23.01
2018-08-17T11:36:33.732Z,23.02
2018-08-17T11:37:34.323Z,23.02
2018-08-17T11:38:33.722Z,23.03
2018-08-17T11:39:33.732Z,23.03
2018-08-17T11:40:33.774Z,23.03
2018-08-17T11:41:34.735Z,23.05
2018-08-17T11:42:33.630Z,23.05
2018-08-17T11:43:33.945Z,23.02
2018-08-17T11:44:34.043Z,23.07
2018-08-17T11:45:34.192Z,23.05
2018-08-17T11:46:33.603Z,23.02
2018-08-17T11:47:33.609Z,23.01
2018-08-17T11:48:33.658Z,23.01
2018-08-17T11:49:33.639Z,23.01
2018-08-17T11:50:34.055Z,22.99
2018-08-17T11:51:33.847Z,23.01
2018-08-17T11:52:33.553Z,23.02
2018-08-17T11:53:34.265Z,23.01
2018-08-17T11:54:33.697Z,23.02
2018-08-17T11:55:33.875Z,23.02
2018-08-17T11:56:33.782Z,23.03
2018-08-17T11:57:33.901Z,23.03
2018-08-17T11:58:33.866Z,23.03
2018-08-17T11:59:34.128Z,23.03
2018-08-17T12:00:34.147Z,23.03
2018-08-17T12:01:33.520Z,23.02
2018-08-17T12:02:33.769Z,23.02
2018-08-17T12:03:33.754Z,23.03
2018-08-17T12:04:33.948Z,23.03
2018-08-17T12:05:34.304Z,23.03
2018-08-17T12:06:34.104Z,23.05
2018-08-17T12:07:33.984Z,23.01
2018-08-17T12:08:34.457Z,23.05
2018-08-17T12:09:33.847Z,23.07
2018-08-17T12:10:33.600Z,23.05
2018-08-17T12:11:33.767Z,23.05
2018-08-17T12:12:33.915Z,23.09
2018-08-17T12:13:33.820Z,23.11
2018-08-17T12:14:33.530Z,23.09
2018-08-17T12:15:33.692Z,23.08
2018-08-17T12:16:33.812Z,23.09
2018-08-17T12:17:34.027Z,23.09
2018-08-17T12:18:33.970Z,23.07
2018-08-17T12:19:33.831Z,23.03
2018-08-17T12:20:33.838Z,23.05
2018-08-17T12:21:33.737Z,23.05
2018-08-17T12:22:33.898Z,23.02
2018-08-17T12:23:33.753Z,23.05
2018-08-17T12:24:35.374Z,23.07
2018-08-17T12:25:33.766Z,23.07
2018-08-17T12:26:34.123Z,23.08
2018-08-17T12:27:33.740Z,23.09
2018-08-17T12:28:33.651Z,23.11
2018-08-17T12:29:33.874Z,23.11
2018-08-17T12:30:33.797Z,23.08
2018-08-17T12:31:33.818Z,23.09
2018-08-17T12:32:33.543Z,23.08
2018-08-17T12:33:33.836Z,23.12
2018-08-17T12:34:33.858Z,23.15
2018-08-17T12:35:34.109Z,23.15
2018-08-17T12:36:33.582Z,23.17
2018-08-17T12:37:33.537Z,23.15
2018-08-17T12:38:33.798Z,23.15
2018-08-17T12:39:34.271Z,23.17
2018-08-17T12:40:33.845Z,23.19
2018-08-17T12:41:33.606Z,23.22
2018-08-17T12:42:33.688Z,23.17
2018-08-17T12:43:33.747Z,23.19
2018-08-17T12:44:33.938Z,23.17
2018-08-17T12:45:33.835Z,23.15
2018-08-17T12:46:34.531Z,23.14
2018-08-17T12:47:33.923Z,23.11
2018-08-17T12:48:33.556Z,23.14
2018-08-17T12:49:33.735Z,23.12
2018-08-17T12:50:33.955Z,23.11
2018-08-17T12:51:33.593Z,23.14
2018-08-17T12:52:33.783Z,23.12